Time;durP1;ratioP1;P1;durP2;ratioP2;P2;SDS_P1;SDS_P2;PMS_P1;PMS_P2;Temp;Humidity;BMP_temperature;BMP_pressure;BME280_temperature;BME280_humidity;BME280_pressure;Samples;Min_cycle;Max_cycle;Signal;HPM_P1;HPM_P2
2020/12/10 00:00:11;;;;;;;;;;;;;;;;;;2115413;28;45587;-84
2020/12/10 00:01:12;;;;;;;;;;;;;;;;;;2115133;28;45566;-85
2020/12/10 00:02:14;;;;;;;;;;;;;;;;;;2115531;28;44570;-85
2020/12/10 00:03:15;;;;;;;;;;;;;;;;;;2113943;28;46038;-85
2020/12/10 00:04:16;;;;;;;;;;;;;;;;;;2106950;28;45005;-83
2020/12/10 00:05:17;;;;;;;;;;;;;;;;;;2115385;28;46819;-83
2020/12/10 00:06:19;;;;;;;;;;;;;;;;;;2106348;28;44867;-84
2020/12/10 00:07:23;;;;;;;;;;;;;;;;;;2106212;28;44164;-83
2020/12/10 00:08:25;;;;;;;;;;;;;;;;;;2114359;28;46213;-83
2020/12/10 00:09:26;;;;;;;;;;;;;;;;;;2115118;27;44854;-84
2020/12/10 00:10:27;;;;;;;;;;;;;;;;;;2115971;28;44730;-83
2020/12/10 00:11:32;;;;;;;;;;;;;;;;;;2114046;28;46318;-84
2020/12/10 00:12:37;;;;;;;;;;;;;;;;;;2114567;28;45095;-82
2020/12/10 00:13:38;;;;;;;;;;;;;;;;;;2114601;28;46486;-84
2020/12/10 00:14:40;;;;;;;;;;;;;;;;;;2106563;28;45794;-83
2020/12/10 00:15:41;;;;;;;;;;;;;;;;;;2114148;28;45677;-82
2020/12/10 00:16:46;;;;;;;;;;;;;;;;;;2114964;27;46905;-83
2020/12/10 00:17:47;;;;;;;;;;;;;;;;;;2115036;28;43211;-83
2020/12/10 00:18:48;;;;;;;;;;;;;;;;;;2106164;28;46987;-88
2020/12/10 00:19:49;;;;;;;;;;;;;;;;;;2114877;28;46431;-81
2020/12/10 00:20:50;;;;;;;;;;;;;;;;;;2114383;28;47125;-84
2020/12/10 00:21:54;;;;;;;;;;;;;;;;;;2114403;28;46343;-81
2020/12/10 00:22:55;;;;;;;;;;;;;;;;;;2114142;28;46171;-82
2020/12/10 00:23:57;;;;;;;;;;;;;;;;;;2114701;28;45632;-82
2020/12/10 00:24:58;;;;;;;;;;;;;;;;;;2114095;28;44187;-81
2020/12/10 00:26:00;;;;;;;;;;;;;;;;;;2114680;28;47049;-82
2020/12/10 00:27:02;;;;;;;;;;;;;;;;;;2114789;27;44134;-81
2020/12/10 00:28:03;;;;;;;;;;;;;;;;;;2115075;27;43016;-81
2020/12/10 00:29:05;;;;;;;;;;;;;;;;;;2114552;27;44309;-80
2020/12/10 00:30:07;;;;;;;;;;;;;;;;;;2114971;28;45483;-84
2020/12/10 00:31:08;;;;;;;;;;;;;;;;;;2114487;28;45224;-85
2020/12/10 00:32:12;;;;;;;;;;;;;;;;;;2114774;28;43417;-84
2020/12/10 00:33:17;;;;;;;;;;;;;;;;;;2107722;28;45353;-84
2020/12/10 00:34:18;;;;;;;;;;;;;;;;;;2116263;28;44081;-80
2020/12/10 00:35:19;;;;;;;;;;;;;;;;;;2116224;28;45305;-81
2020/12/10 00:36:20;;;;;;;;;;;;;;;;;;2118666;28;45326;-81
2020/12/10 00:37:21;;;;;;;;;;;;;;;;;;2119281;28;44799;-81
2020/12/10 00:38:23;;;;;;;;;;;;;;;;;;2121803;27;44328;-80
2020/12/10 00:39:24;;;;;;;;;;;;;;;;;;2123087;27;43208;-79
2020/12/10 00:40:25;;;;;;;;;;;;;;;;;;2124437;28;44522;-81
2020/12/10 00:41:26;;;;;;;;;;;;;;;;;;2116157;28;42765;-81
2020/12/10 00:42:27;;;;;;;;;;;;;;;;;;2117270;28;43278;-82
2020/12/10 00:43:28;;;;;;;;;;;;;;;;;;2117180;28;43675;-82
2020/12/10 00:44:29;;;;;;;;;;;;;;;;;;2125826;28;44316;-81
2020/12/10 00:45:30;;;;;;;;;;;;;;;;;;2125869;28;44262;-82
2020/12/10 00:46:31;;;;;;;;;;;;;;;;;;2125845;28;44014;-83
2020/12/10 00:47:33;;;;;;;;;;;;;;;;;;2118041;27;43832;-84
2020/12/10 00:48:34;;;;;;;;;;;;;;;;;;2117709;28;44756;-84
2020/12/10 00:49:35;;;;;;;;;;;;;;;;;;2117681;28;44066;-84
2020/12/10 00:50:37;;;;;;;;;;;;;;;;;;2117762;28;44027;-80
2020/12/10 00:51:39;;;;;;;;;;;;;;;;;;2125364;28;43713;-81
2020/12/10 00:52:39;;;;;;;;;;;;;;;;;;2125602;28;45027;-81
2020/12/10 00:53:40;;;;;;;;;;;;;;;;;;2126091;28;43541;-80
2020/12/10 00:54:42;;;;;;;;;;;;;;;;;;2126652;28;43656;-81
2020/12/10 00:55:42;;;;;;;;;;;;;;;;;;2126664;28;44584;-81
2020/12/10 00:56:44;;;;;;;;;;;;;;;;;;2122736;28;47282;-81
2020/12/10 00:57:45;;;;;;;;;;;;;;;;;;2119398;27;44490;-81
2020/12/10 00:58:47;;;;;;;;;;;;;;;;;;2118063;28;44989;-80
2020/12/10 00:59:48;;;;;;;;;;;;;;;;;;2118587;28;45423;-81
2020/12/10 01:00:50;;;;;;;;;;;;;;;;;;2118061;28;45400;-79
2020/12/10 01:01:51;;;;;;;;;;;;;;;;;;2117540;28;45405;-80
2020/12/10 01:02:52;;;;;;;;;;;;;;;;;;2117298;28;46997;-79
2020/12/10 01:03:53;;;;;;;;;;;;;;;;;;2116059;28;45478;-80
2020/12/10 01:04:54;;;;;;;;;;;;;;;;;;2117031;28;45039;-80
2020/12/10 01:05:55;;;;;;;;;;;;;;;;;;2116152;28;45480;-80
2020/12/10 01:06:56;;;;;;;;;;;;;;;;;;2116170;28;47149;-80
2020/12/10 01:07:57;;;;;;;;;;;;;;;;;;2116368;28;44372;-80
2020/12/10 01:08:58;;;;;;;;;;;;;;;;;;2115277;28;45468;-80
2020/12/10 01:10:00;;;;;;;;;;;;;;;;;;2115594;28;46926;-79
2020/12/10 01:11:01;;;;;;;;;;;;;;;;;;2115053;28;44212;-81
2020/12/10 01:12:04;;;;;;;;;;;;;;;;;;2115399;28;46883;-81
2020/12/10 01:13:05;;;;;;;;;;;;;;;;;;2116251;28;46830;-80
2020/12/10 01:14:07;;;;;;;;;;;;;;;;;;2116420;28;46433;-83
2020/12/10 01:15:10;;;;;;;;;;;;;;;;;;2116457;28;45923;-83
2020/12/10 01:16:13;;;;;;;;;;;;;;;;;;2107832;28;45729;-80
2020/12/10 01:17:14;;;;;;;;;;;;;;;;;;2115140;27;44466;-80
2020/12/10 01:18:16;;;;;;;;;;;;;;;;;;2115707;28;46220;-80
2020/12/10 01:19:17;;;;;;;;;;;;;;;;;;2116661;28;46248;-81
2020/12/10 01:20:18;;;;;;;;;;;;;;;;;;2108866;28;45828;-81
2020/12/10 01:21:32;;;;;;;;;;;;;;;;;;2116239;27;44228;-81
2020/12/10 01:22:33;;;;;;;;;;;;;;;;;;2117185;28;42798;-82
2020/12/10 01:23:35;;;;;;;;;;;;;;;;;;2115695;28;46371;-82
2020/12/10 01:24:36;;;;;;;;;;;;;;;;;;2115537;28;46983;-82
2020/12/10 01:25:37;;;;;;;;;;;;;;;;;;2115195;28;46344;-81
2020/12/10 01:26:38;;;;;;;;;;;;;;;;;;2115448;28;46872;-81
2020/12/10 01:27:39;;;;;;;;;;;;;;;;;;2114692;27;44439;-81
2020/12/10 01:28:40;;;;;;;;;;;;;;;;;;2115307;28;46085;-82
2020/12/10 01:29:41;;;;;;;;;;;;;;;;;;2115602;28;44092;-82
2020/12/10 01:30:42;;;;;;;;;;;;;;;;;;2115310;28;44503;-82
2020/12/10 01:31:46;;;;;;;;;;;;;;;;;;2115187;28;42973;-82
2020/12/10 01:32:47;;;;;;;;;;;;;;;;;;2115326;28;44273;-82
2020/12/10 01:33:48;;;;;;;;;;;;;;;;;;2115867;28;44052;-82
2020/12/10 01:34:50;;;;;;;;;;;;;;;;;;2115865;28;45312;-83
2020/12/10 01:35:51;;;;;;;;;;;;;;;;;;2116291;27;44314;-82
2020/12/10 01:36:52;;;;;;;;;;;;;;;;;;2114699;28;44155;-83
2020/12/10 01:37:53;;;;;;;;;;;;;;;;;;2106785;28;45484;-83
2020/12/10 01:38:54;;;;;;;;;;;;;;;;;;2106817;28;45312;-82
2020/12/10 01:39:55;;;;;;;;;;;;;;;;;;2115483;28;43048;-84
2020/12/10 01:40:57;;;;;;;;;;;;;;;;;;2118019;27;44441;-84
2020/12/10 01:41:59;;;;;;;;;;;;;;;;;;2116014;28;44682;-84
2020/12/10 01:43:00;;;;;;;;;;;;;;;;;;2108102;28;41430;-84
2020/12/10 01:44:05;;;;;;;;;;;;;;;;;;2115752;27;43964;-84
2020/12/10 01:45:06;;;;;;;;;;;;;;;;;;2115940;28;44365;-84
2020/12/10 01:46:07;;;;;;;;;;;;;;;;;;2107534;28;42748;-85
2020/12/10 01:47:09;;;;;;;;;;;;;;;;;;2115767;28;44484;-84
2020/12/10 01:48:10;;;;;;;;;;;;;;;;;;2116274;28;45297;-84
2020/12/10 01:49:11;;;;;;;;;;;;;;;;;;2116172;27;42669;-84
2020/12/10 01:50:12;;;;;;;;;;;;;;;;;;2116436;28;43566;-84
2020/12/10 01:51:13;;;;;;;;;;;;;;;;;;2117376;28;43327;-84
2020/12/10 01:52:14;;;;;;;;;;;;;;;;;;2116994;28;45328;-84
2020/12/10 01:53:15;;;;;;;;;;;;;;;;;;2117016;28;43829;-84
2020/12/10 01:54:16;;;;;;;;;;;;;;;;;;2117386;28;45380;-84
2020/12/10 01:55:17;;;;;;;;;;;;;;;;;;2109018;28;46685;-84
2020/12/10 01:56:19;;;;;;;;;;;;;;;;;;2109206;28;45288;-84
2020/12/10 01:57:20;;;;;;;;;;;;;;;;;;2117466;28;46321;-84
2020/12/10 01:58:21;;;;;;;;;;;;;;;;;;2109163;28;45663;-83
2020/12/10 01:59:23;;;;;;;;;;;;;;;;;;2117409;28;44345;-85
2020/12/10 02:00:24;;;;;;;;;;;;;;;;;;2117646;28;43033;-84
2020/12/10 02:01:26;;;;;;;;;;;;;;;;;;2108817;28;45589;-83
2020/12/10 02:02:29;;;;;;;;;;;;;;;;;;2116099;28;43893;-80
2020/12/10 02:03:30;;;;;;;;;;;;;;;;;;2115569;28;44885;-80
2020/12/10 02:04:33;;;;;;;;;;;;;;;;;;2115231;27;44420;-81
2020/12/10 02:05:42;;;;;;;;;;;;;;;;;;2114806;28;44683;-80
2020/12/10 02:06:44;;;;;;;;;;;;;;;;;;2115780;27;44170;-81
2020/12/10 02:07:47;;;;;;;;;;;;;;;;;;2115898;28;45347;-81
2020/12/10 02:08:52;;;;;;;;;;;;;;;;;;2114334;28;44396;-80
2020/12/10 02:09:56;;;;;;;;;;;;;;;;;;2115235;28;44216;-80
2020/12/10 02:10:57;;;;;;;;;;;;;;;;;;2114357;28;45794;-81
2020/12/10 02:11:58;;;;;;;;;;;;;;;;;;2114423;28;45094;-82
2020/12/10 02:13:00;;;;;;;;;;;;;;;;;;2115402;27;46155;-81
2020/12/10 02:14:01;;;;;;;;;;;;;;;;;;2115116;28;44557;-81
2020/12/10 02:15:02;;;;;;;;;;;;;;;;;;2114900;28;44528;-81
2020/12/10 02:16:04;;;;;;;;;;;;;;;;;;2115164;28;45827;-81
2020/12/10 02:17:06;;;;;;;;;;;;;;;;;;2115054;28;44384;-81
2020/12/10 02:18:11;;;;;;;;;;;;;;;;;;2116035;27;44299;-81
2020/12/10 02:19:13;;;;;;;;;;;;;;;;;;2114549;28;45863;-81
2020/12/10 02:20:14;;;;;;;;;;;;;;;;;;2115008;28;46872;-80
2020/12/10 02:21:15;;;;;;;;;;;;;;;;;;2114471;27;47543;-82
2020/12/10 02:22:16;;;;;;;;;;;;;;;;;;2115169;28;44523;-83
2020/12/10 02:23:17;;;;;;;;;;;;;;;;;;2116110;28;46052;-83
2020/12/10 02:24:19;;;;;;;;;;;;;;;;;;2116050;28;46452;-83
2020/12/10 02:25:20;;;;;;;;;;;;;;;;;;2115399;28;44361;-83
2020/12/10 02:26:21;;;;;;;;;;;;;;;;;;2115104;28;46272;-83
2020/12/10 02:27:22;;;;;;;;;;;;;;;;;;2115501;28;46904;-83
2020/12/10 02:28:23;;;;;;;;;;;;;;;;;;2106862;28;45000;-83
2020/12/10 02:29:25;;;;;;;;;;;;;;;;;;2106862;28;45708;-82
2020/12/10 02:30:26;;;;;;;;;;;;;;;;;;2098771;28;48813;-83
2020/12/10 02:31:29;;;;;;;;;;;;;;;;;;2114941;28;47431;-83
2020/12/10 02:32:31;;;;;;;;;;;;;;;;;;2115880;27;44684;-83
2020/12/10 02:33:32;;;;;;;;;;;;;;;;;;2115137;28;46032;-83
2020/12/10 02:34:33;;;;;;;;;;;;;;;;;;2107298;28;45044;-83
2020/12/10 02:35:40;;;;;;;;;;;;;;;;;;2115649;28;46050;-84
2020/12/10 02:36:42;;;;;;;;;;;;;;;;;;2115276;28;43266;-82
2020/12/10 02:37:43;;;;;;;;;;;;;;;;;;2114949;28;43031;-82
2020/12/10 02:38:44;;;;;;;;;;;;;;;;;;2114450;28;44325;-82
2020/12/10 02:39:45;;;;;;;;;;;;;;;;;;2114658;28;46920;-80
2020/12/10 02:40:46;;;;;;;;;;;;;;;;;;2115045;28;43236;-81
2020/12/10 02:41:48;;;;;;;;;;;;;;;;;;2114669;27;45084;-81
2020/12/10 02:42:49;;;;;;;;;;;;;;;;;;2115284;28;42867;-81
2020/12/10 02:43:51;;;;;;;;;;;;;;;;;;2115340;27;44394;-81
2020/12/10 02:44:53;;;;;;;;;;;;;;;;;;2115261;27;42909;-81
2020/12/10 02:45:54;;;;;;;;;;;;;;;;;;2115588;28;45503;-80
2020/12/10 02:46:55;;;;;;;;;;;;;;;;;;2115125;27;42817;-81
2020/12/10 02:47:57;;;;;;;;;;;;;;;;;;2115483;27;44994;-81
2020/12/10 02:48:58;;;;;;;;;;;;;;;;;;2114174;28;43005;-80
2020/12/10 02:49:59;;;;;;;;;;;;;;;;;;2114674;28;46973;-81
2020/12/10 02:51:01;;;;;;;;;;;;;;;;;;2114285;28;44527;-80
2020/12/10 02:52:02;;;;;;;;;;;;;;;;;;2115273;27;43613;-81
2020/12/10 02:53:03;;;;;;;;;;;;;;;;;;2115124;28;44563;-82
2020/12/10 02:54:04;;;;;;;;;;;;;;;;;;2114565;28;45655;-82
2020/12/10 02:55:05;;;;;;;;;;;;;;;;;;2114401;28;44508;-81
2020/12/10 02:56:08;;;;;;;;;;;;;;;;;;2114794;28;45506;-81
2020/12/10 02:57:09;;;;;;;;;;;;;;;;;;2114860;28;44484;-82
2020/12/10 02:58:10;;;;;;;;;;;;;;;;;;2115322;27;45154;-81
2020/12/10 02:59:11;;;;;;;;;;;;;;;;;;2114934;28;45472;-81
2020/12/10 03:00:12;;;;;;;;;;;;;;;;;;2115236;28;45651;-83
2020/12/10 03:01:13;;;;;;;;;;;;;;;;;;2114928;27;45489;-84
2020/12/10 03:02:15;;;;;;;;;;;;;;;;;;2115466;28;44456;-84
2020/12/10 03:03:16;;;;;;;;;;;;;;;;;;2115812;27;43408;-84
2020/12/10 03:04:19;;;;;;;;;;;;;;;;;;2114713;28;44110;-84
2020/12/10 03:05:21;;;;;;;;;;;;;;;;;;2114533;27;46180;-81
2020/12/10 03:06:22;;;;;;;;;;;;;;;;;;2114342;28;44378;-82
2020/12/10 03:07:23;;;;;;;;;;;;;;;;;;2114310;28;45548;-81
2020/12/10 03:08:24;;;;;;;;;;;;;;;;;;2114595;28;45507;-81
2020/12/10 03:09:25;;;;;;;;;;;;;;;;;;2114061;28;45446;-81
2020/12/10 03:10:26;;;;;;;;;;;;;;;;;;2114592;28;43858;-82
2020/12/10 03:11:27;;;;;;;;;;;;;;;;;;2114238;28;45483;-82
2020/12/10 03:12:28;;;;;;;;;;;;;;;;;;2114919;28;45376;-81
2020/12/10 03:13:30;;;;;;;;;;;;;;;;;;2113793;28;45436;-82
2020/12/10 03:14:31;;;;;;;;;;;;;;;;;;2106402;28;46861;-81
2020/12/10 03:15:32;;;;;;;;;;;;;;;;;;2114175;27;45692;-81
2020/12/10 03:16:33;;;;;;;;;;;;;;;;;;2115116;27;46048;-81
2020/12/10 03:17:34;;;;;;;;;;;;;;;;;;2114075;27;45368;-81
2020/12/10 03:18:35;;;;;;;;;;;;;;;;;;2114687;28;45479;-81
2020/12/10 03:19:36;;;;;;;;;;;;;;;;;;2113959;28;46133;-81
2020/12/10 03:20:37;;;;;;;;;;;;;;;;;;2105663;28;46187;-80
2020/12/10 03:21:38;;;;;;;;;;;;;;;;;;2113692;28;45829;-81
2020/12/10 03:22:39;;;;;;;;;;;;;;;;;;2114848;28;46017;-81
2020/12/10 03:23:40;;;;;;;;;;;;;;;;;;2114828;28;44927;-81
2020/12/10 03:24:42;;;;;;;;;;;;;;;;;;2113762;28;44798;-81
2020/12/10 03:25:42;;;;;;;;;;;;;;;;;;2114511;28;45466;-81
2020/12/10 03:26:44;;;;;;;;;;;;;;;;;;2114037;27;45833;-79
2020/12/10 03:27:46;;;;;;;;;;;;;;;;;;2114509;28;44550;-83
2020/12/10 03:28:47;;;;;;;;;;;;;;;;;;2114547;28;46151;-85
2020/12/10 03:29:48;;;;;;;;;;;;;;;;;;2106919;28;44827;-85
2020/12/10 03:30:49;;;;;;;;;;;;;;;;;;2114669;28;44741;-85
2020/12/10 03:31:51;;;;;;;;;;;;;;;;;;2115301;27;46867;-82
2020/12/10 03:32:52;;;;;;;;;;;;;;;;;;2114971;28;46779;-81
2020/12/10 03:33:53;;;;;;;;;;;;;;;;;;2114481;28;45835;-82
2020/12/10 03:34:54;;;;;;;;;;;;;;;;;;2114443;28;46820;-81
2020/12/10 03:35:55;;;;;;;;;;;;;;;;;;2115284;28;45805;-82
2020/12/10 03:36:57;;;;;;;;;;;;;;;;;;2115104;28;45981;-82
2020/12/10 03:38:00;;;;;;;;;;;;;;;;;;2106186;28;46179;-82
2020/12/10 03:39:01;;;;;;;;;;;;;;;;;;2106057;28;45672;-82
2020/12/10 03:40:02;;;;;;;;;;;;;;;;;;2115375;28;45676;-82
2020/12/10 03:41:06;;;;;;;;;;;;;;;;;;2114580;27;45655;-80
2020/12/10 03:42:07;;;;;;;;;;;;;;;;;;2115218;28;43088;-81
2020/12/10 03:43:09;;;;;;;;;;;;;;;;;;2115105;27;44014;-80
2020/12/10 03:44:10;;;;;;;;;;;;;;;;;;2115128;28;42968;-81
2020/12/10 03:45:11;;;;;;;;;;;;;;;;;;2114431;28;44356;-81
2020/12/10 03:46:12;;;;;;;;;;;;;;;;;;2114426;28;43305;-81
2020/12/10 03:47:14;;;;;;;;;;;;;;;;;;2115026;28;44551;-81
2020/12/10 03:48:15;;;;;;;;;;;;;;;;;;2115887;27;45236;-82
2020/12/10 03:49:16;;;;;;;;;;;;;;;;;;2115057;28;44731;-82
2020/12/10 03:50:17;;;;;;;;;;;;;;;;;;2116057;28;44251;-82
2020/12/10 03:51:18;;;;;;;;;;;;;;;;;;2114125;27;45142;-81
2020/12/10 03:52:21;;;;;;;;;;;;;;;;;;2115273;28;42746;-81
2020/12/10 03:53:22;;;;;;;;;;;;;;;;;;2114989;28;42663;-81
2020/12/10 03:54:23;;;;;;;;;;;;;;;;;;2115045;27;43984;-81
2020/12/10 03:55:24;;;;;;;;;;;;;;;;;;2114358;28;42890;-81
2020/12/10 03:56:25;;;;;;;;;;;;;;;;;;2114713;28;42265;-81
2020/12/10 03:57:27;;;;;;;;;;;;;;;;;;2114278;28;42812;-81
2020/12/10 03:58:28;;;;;;;;;;;;;;;;;;2114506;28;44021;-82
2020/12/10 03:59:29;;;;;;;;;;;;;;;;;;2114234;28;42646;-81
2020/12/10 04:00:30;;;;;;;;;;;;;;;;;;2106014;28;44839;-81
2020/12/10 04:01:32;;;;;;;;;;;;;;;;;;2113381;28;45162;-81
2020/12/10 04:02:35;;;;;;;;;;;;;;;;;;2114375;28;44460;-81
2020/12/10 04:03:36;;;;;;;;;;;;;;;;;;2113696;27;46526;-81
2020/12/10 04:04:38;;;;;;;;;;;;;;;;;;2114317;28;44405;-81
2020/12/10 04:05:39;;;;;;;;;;;;;;;;;;2114660;27;44675;-81
2020/12/10 04:06:43;;;;;;;;;;;;;;;;;;2114372;28;44526;-80
2020/12/10 04:07:44;;;;;;;;;;;;;;;;;;2114582;28;43867;-79
2020/12/10 04:08:45;;;;;;;;;;;;;;;;;;2114160;28;45395;-81
2020/12/10 04:09:46;;;;;;;;;;;;;;;;;;2114067;28;45352;-81
2020/12/10 04:10:47;;;;;;;;;;;;;;;;;;2114179;28;45560;-81
2020/12/10 04:11:48;;;;;;;;;;;;;;;;;;2113724;28;44620;-80
2020/12/10 04:12:50;;;;;;;;;;;;;;;;;;2106017;28;46423;-81
2020/12/10 04:13:51;;;;;;;;;;;;;;;;;;2107242;28;44023;-81
2020/12/10 04:14:52;;;;;;;;;;;;;;;;;;2115430;28;43098;-81
2020/12/10 04:15:53;;;;;;;;;;;;;;;;;;2115626;28;44408;-81
2020/12/10 04:16:54;;;;;;;;;;;;;;;;;;2115784;28;45432;-81
2020/12/10 04:17:55;;;;;;;;;;;;;;;;;;2116386;28;45602;-80
2020/12/10 04:18:56;;;;;;;;;;;;;;;;;;2115685;28;43928;-80
2020/12/10 04:19:57;;;;;;;;;;;;;;;;;;2107532;28;45883;-80
2020/12/10 04:20:58;;;;;;;;;;;;;;;;;;2106871;28;45173;-79
2020/12/10 04:21:59;;;;;;;;;;;;;;;;;;2115464;28;42573;-81
2020/12/10 04:23:00;;;;;;;;;;;;;;;;;;2115660;28;45257;-80
2020/12/10 04:24:02;;;;;;;;;;;;;;;;;;2115992;28;44318;-81
2020/12/10 04:25:03;;;;;;;;;;;;;;;;;;2107453;28;44528;-81
2020/12/10 04:26:04;;;;;;;;;;;;;;;;;;2115817;28;44023;-82
2020/12/10 04:27:05;;;;;;;;;;;;;;;;;;2116560;27;45920;-80
2020/12/10 04:28:06;;;;;;;;;;;;;;;;;;2116453;28;44729;-81
2020/12/10 04:29:07;;;;;;;;;;;;;;;;;;2116080;28;42719;-81
2020/12/10 04:30:08;;;;;;;;;;;;;;;;;;2117339;28;46367;-81
2020/12/10 04:31:09;;;;;;;;;;;;;;;;;;2115782;28;45758;-81
2020/12/10 04:32:10;;;;;;;;;;;;;;;;;;2107737;28;44879;-82
2020/12/10 04:33:12;;;;;;;;;;;;;;;;;;2116205;28;47415;-81
2020/12/10 04:34:12;;;;;;;;;;;;;;;;;;2117364;27;46166;-81
2020/12/10 04:35:13;;;;;;;;;;;;;;;;;;2118696;28;46149;-81
2020/12/10 04:36:16;;;;;;;;;;;;;;;;;;2118971;28;46748;-81
2020/12/10 04:37:17;;;;;;;;;;;;;;;;;;2125843;27;44840;-81
2020/12/10 04:38:20;;;;;;;;;;;;;;;;;;2117838;28;44880;-81
2020/12/10 04:39:22;;;;;;;;;;;;;;;;;;2126120;28;44684;-82
2020/12/10 04:40:23;;;;;;;;;;;;;;;;;;2126383;28;46304;-81
2020/12/10 04:41:27;;;;;;;;;;;;;;;;;;2124993;27;46015;-80
2020/12/10 04:42:29;;;;;;;;;;;;;;;;;;2125128;28;46900;-82
2020/12/10 04:43:31;;;;;;;;;;;;;;;;;;2125705;27;44861;-80
2020/12/10 04:44:32;;;;;;;;;;;;;;;;;;2116567;28;46130;-80
2020/12/10 04:45:33;;;;;;;;;;;;;;;;;;2117266;28;45756;-81
2020/12/10 04:46:38;;;;;;;;;;;;;;;;;;2118321;28;44175;-82
2020/12/10 04:47:40;;;;;;;;;;;;;;;;;;2115813;28;45823;-81
2020/12/10 04:48:41;;;;;;;;;;;;;;;;;;2115807;28;43639;-80
2020/12/10 04:49:43;;;;;;;;;;;;;;;;;;2116050;27;45552;-80
2020/12/10 04:50:44;;;;;;;;;;;;;;;;;;2115420;28;44343;-81
2020/12/10 04:51:45;;;;;;;;;;;;;;;;;;2115018;28;42934;-80
2020/12/10 04:52:47;;;;;;;;;;;;;;;;;;2115396;28;45469;-80
2020/12/10 04:53:49;;;;;;;;;;;;;;;;;;2115761;27;44401;-81
2020/12/10 04:54:51;;;;;;;;;;;;;;;;;;2115267;28;42271;-80
2020/12/10 04:55:53;;;;;;;;;;;;;;;;;;2115388;28;44368;-83
2020/12/10 04:56:55;;;;;;;;;;;;;;;;;;2115681;28;43516;-81
2020/12/10 04:57:58;;;;;;;;;;;;;;;;;;2107177;28;45762;-79
2020/12/10 04:59:00;;;;;;;;;;;;;;;;;;2107137;28;44392;-80
2020/12/10 05:00:04;;;;;;;;;;;;;;;;;;2106961;28;42922;-80
2020/12/10 05:01:05;;;;;;;;;;;;;;;;;;2114633;28;43380;-80
2020/12/10 05:02:11;;;;;;;;;;;;;;;;;;2115727;27;45802;-80
2020/12/10 05:03:13;;;;;;;;;;;;;;;;;;2115154;28;44224;-80
2020/12/10 05:04:14;;;;;;;;;;;;;;;;;;2106892;28;45302;-80
2020/12/10 05:05:28;;;;;;;;;;;;;;;;;;2106762;28;42771;-79
2020/12/10 05:06:31;;;;;;;;;;;;;;;;;;2115416;28;44088;-82
2020/12/10 05:07:38;;;;;;;;;;;;;;;;;;2115212;28;43312;-79
2020/12/10 05:08:40;;;;;;;;;;;;;;;;;;2115678;27;45599;-80
2020/12/10 05:09:55;;;;;;;;;;;;;;;;;;2115564;27;44037;-80
2020/12/10 05:10:56;;;;;;;;;;;;;;;;;;2114977;27;44327;-80
2020/12/10 05:11:57;;;;;;;;;;;;;;;;;;2115722;27;46794;-80
2020/12/10 05:13:09;;;;;;;;;;;;;;;;;;2115742;27;44516;-80
2020/12/10 05:14:11;;;;;;;;;;;;;;;;;;2115806;27;43472;-80
2020/12/10 05:15:18;;;;;;;;;;;;;;;;;;2115715;27;44017;-80
2020/12/10 05:16:20;;;;;;;;;;;;;;;;;;2115951;27;42966;-80
2020/12/10 05:17:21;;;;;;;;;;;;;;;;;;2115539;27;45381;-80
2020/12/10 05:18:22;;;;;;;;;;;;;;;;;;2116224;27;43866;-80
2020/12/10 05:19:26;;;;;;;;;;;;;;;;;;2115920;27;46512;-80
2020/12/10 05:20:37;;;;;;;;;;;;;;;;;;2115840;28;46785;-79
2020/12/10 05:21:38;;;;;;;;;;;;;;;;;;2115003;27;45104;-80
2020/12/10 05:22:44;;;;;;;;;;;;;;;;;;2115394;28;45301;-80
2020/12/10 05:23:45;;;;;;;;;;;;;;;;;;2115324;28;45871;-81
2020/12/10 05:24:46;;;;;;;;;;;;;;;;;;2113554;27;45652;-79
2020/12/10 05:25:51;;;;;;;;;;;;;;;;;;2115227;28;44141;-80
2020/12/10 05:27:12;;;;;;;;;;;;;;;;;;2115018;28;43897;-80
2020/12/10 05:28:17;;;;;;;;;;;;;;;;;;2115334;28;45513;-80
2020/12/10 05:29:32;;;;;;;;;;;;;;;;;;2106904;28;43280;-81
2020/12/10 05:30:33;;;;;;;;;;;;;;;;;;2109124;28;44376;-81
2020/12/10 05:31:35;;;;;;;;;;;;;;;;;;2114529;27;44990;-82
2020/12/10 05:32:38;;;;;;;;;;;;;;;;;;2115124;28;47131;-81
2020/12/10 05:33:59;;;;;;;;;;;;;;;;;;2115624;27;44724;-81
2020/12/10 05:35:14;;;;;;;;;;;;;;;;;;2115074;28;45879;-82
2020/12/10 05:36:15;;;;;;;;;;;;;;;;;;2115273;28;45928;-81
2020/12/10 05:37:25;;;;;;;;;;;;;;;;;;2115528;27;47009;-81
2020/12/10 05:38:26;;;;;;;;;;;;;;;;;;2115289;28;44771;-81
2020/12/10 05:39:27;;;;;;;;;;;;;;;;;;2114584;28;47169;-80
2020/12/10 05:40:28;;;;;;;;;;;;;;;;;;2115847;28;45194;-80
2020/12/10 05:41:31;;;;;;;;;;;;;;;;;;2114870;28;46186;-81
2020/12/10 05:42:35;;;;;;;;;;;;;;;;;;2115583;27;45769;-80
2020/12/10 05:43:36;;;;;;;;;;;;;;;;;;2115338;27;46068;-81
2020/12/10 05:44:37;;;;;;;;;;;;;;;;;;2115779;28;45249;-80
2020/12/10 05:45:39;;;;;;;;;;;;;;;;;;2115433;28;47145;-80
2020/12/10 05:46:40;;;;;;;;;;;;;;;;;;2115545;27;45950;-81
2020/12/10 05:47:44;;;;;;;;;;;;;;;;;;2115567;28;47301;-81
2020/12/10 05:48:46;;;;;;;;;;;;;;;;;;2115040;28;47194;-81
2020/12/10 05:49:47;;;;;;;;;;;;;;;;;;2114886;28;44426;-80
2020/12/10 05:50:48;;;;;;;;;;;;;;;;;;2115149;28;46130;-81
2020/12/10 05:51:50;;;;;;;;;;;;;;;;;;2114752;27;46034;-80
2020/12/10 05:52:55;;;;;;;;;;;;;;;;;;2115639;28;46010;-80
2020/12/10 05:53:59;;;;;;;;;;;;;;;;;;2115555;27;45767;-80
2020/12/10 05:55:02;;;;;;;;;;;;;;;;;;2115740;28;46178;-81
2020/12/10 05:56:03;;;;;;;;;;;;;;;;;;2115807;27;41646;-80
2020/12/10 05:57:05;;;;;;;;;;;;;;;;;;2115280;27;46372;-80
2020/12/10 05:58:07;;;;;;;;;;;;;;;;;;2115350;27;43026;-80
2020/12/10 05:59:10;;;;;;;;;;;;;;;;;;2115115;28;45175;-82
2020/12/10 06:00:11;;;;;;;;;;;;;;;;;;2114999;28;44186;-83
2020/12/10 06:01:26;;;;;;;;;;;;;;;;;;2115607;28;43278;-81
2020/12/10 06:02:30;;;;;;;;;;;;;;;;;;2115126;28;42834;-83
2020/12/10 06:03:31;;;;;;;;;;;;;;;;;;2107167;28;42944;-82
2020/12/10 06:04:33;;;;;;;;;;;;;;;;;;2115244;28;44275;-82
2020/12/10 06:05:35;;;;;;;;;;;;;;;;;;2116089;27;42005;-82
2020/12/10 06:06:37;;;;;;;;;;;;;;;;;;2116047;28;43075;-82
2020/12/10 06:07:38;;;;;;;;;;;;;;;;;;2114840;28;45954;-83
2020/12/10 06:08:39;;;;;;;;;;;;;;;;;;2114874;28;44683;-82
2020/12/10 06:09:41;;;;;;;;;;;;;;;;;;2106304;28;41976;-83
2020/12/10 06:10:42;;;;;;;;;;;;;;;;;;2115026;27;41196;-82
2020/12/10 06:11:43;;;;;;;;;;;;;;;;;;2113029;28;43974;-82
2020/12/10 06:12:49;;;;;;;;;;;;;;;;;;2106391;28;44735;-83
2020/12/10 06:13:58;;;;;;;;;;;;;;;;;;2106637;28;45383;-83
2020/12/10 06:14:59;;;;;;;;;;;;;;;;;;2106243;28;43142;-82
2020/12/10 06:16:17;;;;;;;;;;;;;;;;;;2107172;28;44527;-81
2020/12/10 06:17:21;;;;;;;;;;;;;;;;;;2107397;28;41614;-82
2020/12/10 06:18:22;;;;;;;;;;;;;;;;;;2098868;28;46588;-82
2020/12/10 06:19:31;;;;;;;;;;;;;;;;;;2106484;28;45831;-81
2020/12/10 06:20:40;;;;;;;;;;;;;;;;;;2106686;28;45670;-81
2020/12/10 06:21:45;;;;;;;;;;;;;;;;;;2105618;28;44280;-80
2020/12/10 06:22:46;;;;;;;;;;;;;;;;;;2107156;28;44780;-82
2020/12/10 06:23:47;;;;;;;;;;;;;;;;;;2107066;28;46761;-81
2020/12/10 06:24:48;;;;;;;;;;;;;;;;;;2106729;28;44366;-81
2020/12/10 06:25:53;;;;;;;;;;;;;;;;;;2107041;28;44928;-80
2020/12/10 06:26:57;;;;;;;;;;;;;;;;;;2107042;28;44326;-81
2020/12/10 06:28:17;;;;;;;;;;;;;;;;;;2106702;28;43876;-81
2020/12/10 06:29:19;;;;;;;;;;;;;;;;;;2105876;28;45347;-80
2020/12/10 06:30:20;;;;;;;;;;;;;;;;;;2106601;28;43608;-81
2020/12/10 06:31:21;;;;;;;;;;;;;;;;;;2105236;28;46143;-79
2020/12/10 06:32:22;;;;;;;;;;;;;;;;;;2106302;28;45305;-80
2020/12/10 06:33:40;;;;;;;;;;;;;;;;;;2106905;28;45310;-80
2020/12/10 06:34:41;;;;;;;;;;;;;;;;;;2106901;28;45918;-80
2020/12/10 06:35:42;;;;;;;;;;;;;;;;;;2106461;28;45239;-80
2020/12/10 06:36:43;;;;;;;;;;;;;;;;;;2106901;28;44812;-81
2020/12/10 06:37:47;;;;;;;;;;;;;;;;;;2106753;28;45551;-80
2020/12/10 06:38:49;;;;;;;;;;;;;;;;;;2106818;28;45383;-81
2020/12/10 06:39:51;;;;;;;;;;;;;;;;;;2106906;28;45812;-81
2020/12/10 06:40:59;;;;;;;;;;;;;;;;;;2105799;28;43191;-80
2020/12/10 06:42:03;;;;;;;;;;;;;;;;;;2103536;28;43817;-81
2020/12/10 06:43:05;;;;;;;;;;;;;;;;;;2114657;28;45170;-81
2020/12/10 06:44:06;;;;;;;;;;;;;;;;;;2106360;28;46664;-80
2020/12/10 06:45:23;;;;;;;;;;;;;;;;;;2106404;28;46091;-81
2020/12/10 06:46:24;;;;;;;;;;;;;;;;;;2114931;27;45618;-81
2020/12/10 06:47:40;;;;;;;;;;;;;;;;;;2114541;28;45605;-81
2020/12/10 06:48:43;;;;;;;;;;;;;;;;;;2114631;28;47330;-79
2020/12/10 06:49:44;;;;;;;;;;;;;;;;;;2115232;27;46174;-80
2020/12/10 06:50:45;;;;;;;;;;;;;;;;;;2114784;28;46053;-80
2020/12/10 06:52:05;;;;;;;;;;;;;;;;;;2114334;28;43612;-80
2020/12/10 06:53:07;;;;;;;;;;;;;;;;;;2108914;28;47343;-80
2020/12/10 06:54:08;;;;;;;;;;;;;;;;;;2114400;28;46005;-80
2020/12/10 06:55:10;;;;;;;;;;;;;;;;;;2114295;28;45613;-80
2020/12/10 06:56:13;;;;;;;;;;;;;;;;;;2106248;28;46609;-80
2020/12/10 06:57:15;;;;;;;;;;;;;;;;;;2114562;28;45909;-80
2020/12/10 06:58:16;;;;;;;;;;;;;;;;;;2115170;27;45993;-80
2020/12/10 06:59:17;;;;;;;;;;;;;;;;;;2114475;28;45543;-81
2020/12/10 07:00:34;;;;;;;;;;;;;;;;;;2115062;28;44478;-81
2020/12/10 07:01:37;;;;;;;;;;;;;;;;;;2113716;28;46295;-80
2020/12/10 07:02:39;;;;;;;;;;;;;;;;;;2114286;28;43838;-81
2020/12/10 07:03:43;;;;;;;;;;;;;;;;;;2114558;28;46578;-81
2020/12/10 07:04:50;;;;;;;;;;;;;;;;;;2114450;28;43445;-80
2020/12/10 07:05:51;;;;;;;;;;;;;;;;;;2114320;28;43146;-79